createdAt,value
2023-03-01T00:01:27.192Z,18.60
2023-03-01T00:03:55.674Z,20.47
2023-03-01T00:06:23.661Z,18.50
2023-03-01T00:08:51.335Z,19.73
2023-03-01T00:11:30.810Z,18.03
2023-03-01T00:14:01.934Z,20.53
2023-03-01T00:16:34.521Z,20.77
2023-03-01T00:19:02.978Z,20.67
2023-03-01T00:21:30.480Z,21.77
2023-03-01T00:23:59.137Z,20.07
2023-03-01T00:26:27.415Z,20.97
2023-03-01T00:28:58.494Z,20.07
2023-03-01T00:31:28.632Z,19.15
2023-03-01T00:34:02.620Z,19.40
2023-03-01T00:36:33.542Z,17.80
2023-03-01T00:39:01.453Z,18.02
2023-03-01T00:41:28.973Z,19.07
2023-03-01T00:43:57.063Z,19.60
2023-03-01T00:46:27.385Z,19.53
2023-03-01T00:48:55.667Z,19.93
2023-03-01T00:51:26.657Z,23.00
2023-03-01T00:54:00.125Z,20.20
2023-03-01T00:56:28.438Z,19.50
2023-03-01T00:58:56.512Z,18.90
2023-03-01T01:01:32.278Z,19.03
2023-03-01T01:04:03.452Z,17.90
2023-03-01T01:09:01.119Z,18.60
2023-03-01T01:11:30.729Z,18.90
2023-03-01T01:13:58.996Z,18.30
2023-03-01T01:16:28.436Z,19.20
2023-03-01T01:18:57.673Z,19.63
2023-03-01T01:21:26.510Z,18.73
2023-03-01T01:23:54.520Z,19.63
2023-03-01T01:26:34.820Z,18.43
2023-03-01T01:29:04.220Z,19.00
2023-03-01T01:31:32.683Z,20.33
2023-03-01T01:34:02.098Z,19.30
2023-03-01T01:36:29.987Z,18.90
2023-03-01T01:38:58.359Z,19.57
2023-03-01T01:41:28.448Z,19.33
2023-03-01T01:44:18.200Z,17.53
2023-03-01T01:46:53.742Z,19.70
2023-03-01T01:49:52.687Z,22.30
2023-03-01T01:52:26.488Z,18.10
2023-03-01T01:55:09.634Z,18.03
2023-03-01T01:57:44.200Z,17.97
2023-03-01T02:00:21.478Z,17.30
2023-03-01T02:02:53.091Z,18.97
2023-03-01T02:05:59.504Z,18.08
2023-03-01T02:08:31.487Z,18.30
2023-03-01T02:13:28.248Z,16.83
2023-03-01T02:15:55.951Z,19.37
2023-03-01T02:18:25.252Z,20.27
2023-03-01T02:21:30.633Z,18.73
2023-03-01T02:24:02.624Z,19.63
2023-03-01T02:26:52.613Z,18.10
2023-03-01T02:29:22.313Z,17.77
2023-03-01T02:31:52.323Z,18.40
2023-03-01T02:34:23.134Z,18.50
2023-03-01T02:37:05.691Z,20.63
2023-03-01T02:39:39.196Z,19.27
2023-03-01T02:42:07.696Z,19.10
2023-03-01T02:44:35.361Z,18.63
2023-03-01T02:47:04.708Z,18.67
2023-03-01T02:49:35.621Z,17.93
2023-03-01T02:52:38.890Z,18.97
2023-03-01T02:55:13.912Z,17.20
2023-03-01T02:57:46.861Z,18.77
2023-03-01T03:00:20.661Z,19.40
2023-03-01T03:02:51.299Z,17.20
2023-03-01T03:05:24.065Z,18.15
2023-03-01T03:07:55.370Z,18.07
2023-03-01T03:10:26.217Z,18.47
2023-03-01T03:12:59.419Z,17.57
2023-03-01T03:15:28.918Z,19.20
2023-03-01T03:17:58.836Z,19.07
2023-03-01T03:20:29.173Z,20.20
2023-03-01T03:23:01.566Z,19.70
2023-03-01T03:25:30.206Z,16.57
2023-03-01T03:27:58.986Z,16.43
2023-03-01T03:30:29.948Z,16.70
2023-03-01T03:32:58.878Z,17.98
2023-03-01T03:35:32.684Z,17.87
2023-03-01T03:38:02.732Z,18.23
2023-03-01T03:40:41.690Z,17.47
2023-03-01T03:43:11.845Z,16.90
2023-03-01T03:45:39.836Z,16.30
2023-03-01T03:48:10.392Z,18.37
2023-03-01T03:50:39.363Z,17.13
2023-03-01T03:53:12.337Z,17.37
2023-03-01T03:55:40.352Z,17.57
2023-03-01T03:58:10.718Z,18.17
2023-03-01T04:00:44.391Z,19.40
2023-03-01T04:03:14.261Z,18.00
2023-03-01T04:05:42.506Z,18.70
2023-03-01T04:08:10.266Z,16.57
2023-03-01T04:10:43.386Z,16.27
2023-03-01T04:13:13.334Z,15.87
2023-03-01T04:15:41.431Z,15.93
2023-03-01T04:18:11.524Z,17.07
2023-03-01T04:20:39.647Z,17.43
2023-03-01T04:23:21.719Z,17.07
2023-03-01T04:25:57.210Z,16.20
2023-03-01T04:28:27.506Z,16.30
2023-03-01T04:30:56.347Z,16.87
2023-03-01T04:33:25.040Z,17.17
2023-03-01T04:35:53.187Z,16.30
2023-03-01T04:38:22.280Z,16.27
2023-03-01T04:40:49.826Z,17.73
2023-03-01T04:43:18.689Z,16.00
2023-03-01T04:45:46.235Z,16.43
2023-03-01T04:48:13.732Z,19.03
2023-03-01T04:50:41.093Z,18.90
2023-03-01T04:53:08.520Z,17.93
2023-03-01T04:55:35.926Z,18.10
2023-03-01T04:58:03.392Z,19.40
2023-03-01T05:00:30.706Z,19.63
2023-03-01T05:03:01.558Z,19.00
2023-03-01T05:05:35.204Z,17.77
2023-03-01T05:08:06.011Z,18.23
2023-03-01T05:10:36.306Z,17.50
2023-03-01T05:13:04.895Z,17.03
2023-03-01T05:15:33.087Z,18.87
2023-03-01T05:18:01.165Z,18.80
2023-03-01T05:20:31.212Z,17.93
2023-03-01T05:23:01.048Z,18.23
2023-03-01T05:25:34.131Z,18.97
2023-03-01T05:28:05.392Z,18.77
2023-03-01T05:30:34.496Z,15.68
2023-03-01T05:33:02.296Z,21.17
2023-03-01T05:35:30.596Z,19.70
2023-03-01T05:37:58.075Z,17.37
2023-03-01T05:40:25.848Z,19.00
2023-03-01T05:42:58.000Z,17.90
2023-03-01T05:45:27.417Z,18.27
2023-03-01T05:47:56.139Z,18.80
2023-03-01T05:50:26.468Z,16.77
2023-03-01T05:53:00.021Z,17.53
2023-03-01T05:55:29.123Z,18.13
2023-03-01T05:57:58.599Z,17.93
2023-03-01T06:00:26.364Z,18.53
2023-03-01T06:02:55.658Z,19.80
2023-03-01T06:05:23.880Z,18.10
2023-03-01T06:07:51.611Z,18.80
2023-03-01T06:10:20.909Z,18.87
2023-03-01T06:12:48.800Z,18.37
2023-03-01T06:15:19.373Z,17.97
2023-03-01T06:17:47.591Z,18.17
2023-03-01T06:20:23.278Z,17.70
2023-03-01T06:22:50.909Z,16.93
2023-03-01T06:25:21.483Z,17.67
2023-03-01T06:27:50.329Z,17.30
2023-03-01T06:30:20.143Z,16.97
2023-03-01T06:32:47.541Z,19.00
2023-03-01T06:35:19.354Z,17.20
2023-03-01T06:40:16.149Z,16.60
2023-03-01T06:42:48.246Z,18.37
2023-03-01T06:45:15.880Z,19.53
2023-03-01T06:47:43.352Z,18.20
2023-03-01T06:50:11.606Z,18.57
2023-03-01T06:52:39.381Z,18.47
2023-03-01T06:55:07.864Z,17.50
2023-03-01T06:57:35.260Z,16.67
2023-03-01T07:00:03.999Z,19.83
2023-03-01T07:02:31.478Z,17.20
2023-03-01T07:04:58.978Z,19.30
2023-03-01T07:07:26.362Z,23.00
2023-03-01T07:09:55.383Z,21.93
2023-03-01T07:12:22.901Z,21.13
2023-03-01T07:14:50.323Z,20.93
2023-03-01T07:17:17.727Z,19.10
2023-03-01T07:19:46.076Z,18.70
2023-03-01T07:22:13.468Z,18.20
2023-03-01T07:24:42.558Z,19.80
2023-03-01T07:27:10.673Z,18.93
2023-03-01T07:29:38.816Z,17.07
2023-03-01T07:32:07.647Z,20.23
2023-03-01T07:34:35.152Z,17.97
2023-03-01T07:37:02.672Z,18.47
2023-03-01T07:39:30.322Z,16.50
2023-03-01T07:41:57.720Z,17.73
2023-03-01T07:44:25.351Z,18.07
2023-03-01T07:46:57.233Z,19.80
2023-03-01T07:49:24.803Z,18.52
2023-03-01T07:51:54.767Z,19.00
2023-03-01T07:54:26.508Z,18.48
2023-03-01T07:56:58.370Z,18.50
2023-03-01T07:59:30.101Z,20.00
2023-03-01T08:01:58.296Z,18.20
2023-03-01T08:04:27.706Z,19.23
2023-03-01T08:06:56.214Z,20.27
2023-03-01T08:09:23.753Z,19.53
2023-03-01T08:11:51.236Z,19.27
2023-03-01T08:14:18.752Z,18.37
2023-03-01T08:16:46.174Z,20.17
2023-03-01T08:19:13.894Z,19.33
2023-03-01T08:21:41.490Z,19.27
2023-03-01T08:24:11.226Z,18.80
2023-03-01T08:26:39.058Z,18.60
2023-03-01T08:29:07.385Z,20.43
2023-03-01T08:31:38.495Z,19.23
2023-03-01T08:34:08.473Z,19.50
2023-03-01T08:36:41.304Z,18.13
2023-03-01T08:39:10.697Z,16.60
2023-03-01T08:41:39.157Z,17.40
2023-03-01T08:44:07.748Z,17.17
2023-03-01T08:46:38.567Z,15.73
2023-03-01T08:49:14.243Z,16.13
2023-03-01T08:51:42.117Z,18.67
2023-03-01T08:54:15.998Z,16.63
2023-03-01T08:56:44.140Z,16.73
2023-03-01T08:59:13.454Z,17.13
2023-03-01T09:01:41.432Z,17.60
2023-03-01T09:06:37.318Z,18.67
2023-03-01T09:09:06.622Z,17.50
2023-03-01T09:11:34.473Z,18.50
2023-03-01T09:14:01.871Z,18.17
2023-03-01T09:16:31.246Z,17.67
2023-03-01T09:18:58.852Z,18.20
2023-03-01T09:21:39.450Z,16.17
2023-03-01T09:24:15.252Z,17.80
2023-03-01T09:26:43.486Z,16.23
2023-03-01T09:29:11.166Z,16.47
2023-03-01T09:31:39.422Z,17.03
2023-03-01T09:34:07.389Z,17.80
2023-03-01T09:36:36.170Z,17.07
2023-03-01T09:39:06.906Z,16.43
2023-03-01T09:42:03.992Z,17.30
2023-03-01T09:44:44.136Z,16.93
2023-03-01T09:47:22.622Z,15.13
2023-03-01T09:50:18.074Z,15.93
2023-03-01T09:53:15.305Z,16.60
2023-03-01T09:56:40.174Z,16.27
2023-03-01T09:59:23.325Z,16.40
2023-03-01T10:02:34.953Z,14.90
2023-03-01T10:05:16.801Z,15.97
2023-03-01T10:08:27.337Z,16.30
2023-03-01T10:10:54.953Z,17.20
2023-03-01T10:13:38.468Z,16.10
2023-03-01T10:16:21.998Z,16.27
2023-03-01T10:18:55.802Z,16.50
2023-03-01T10:21:23.878Z,17.93
2023-03-01T10:23:54.216Z,17.73
2023-03-01T10:26:49.505Z,16.37
2023-03-01T10:29:17.251Z,16.77
2023-03-01T10:31:48.114Z,16.17
2023-03-01T10:34:22.139Z,16.20
2023-03-01T10:36:52.097Z,16.38
2023-03-01T10:39:22.902Z,16.42
2023-03-01T10:42:02.652Z,14.70
2023-03-01T10:44:47.097Z,14.30
2023-03-01T10:47:34.745Z,13.50
2023-03-01T10:50:07.309Z,14.55
2023-03-01T10:52:37.699Z,15.15
2023-03-01T10:55:37.948Z,15.10
2023-03-01T10:58:18.302Z,15.48
2023-03-01T11:00:59.533Z,15.90
2023-03-01T11:03:33.573Z,15.95
2023-03-01T11:06:37.185Z,15.80
2023-03-01T11:09:23.614Z,14.80
2023-03-01T11:12:00.792Z,14.55
2023-03-01T11:14:34.064Z,13.77
2023-03-01T11:17:13.333Z,16.83
2023-03-01T11:19:43.685Z,15.13
2023-03-01T11:22:21.786Z,13.97
2023-03-01T11:25:07.080Z,12.23
2023-03-01T11:27:41.934Z,11.40
2023-03-01T11:30:37.201Z,10.98
2023-03-01T11:33:28.887Z,11.20
2023-03-01T11:36:27.332Z,10.85
2023-03-01T11:38:56.476Z,11.10
2023-03-01T11:41:32.772Z,10.65
2023-03-01T11:44:04.070Z,10.48
2023-03-01T11:46:59.896Z,10.70
2023-03-01T11:49:50.868Z,10.13
2023-03-01T11:52:56.050Z,9.48
2023-03-01T11:55:58.093Z,10.00
2023-03-01T11:59:04.779Z,10.43
2023-03-01T12:02:13.264Z,9.18
2023-03-01T12:05:21.822Z,10.52
2023-03-01T12:08:18.852Z,10.45
2023-03-01T12:11:32.744Z,9.25
2023-03-01T12:14:33.236Z,11.50
2023-03-01T12:17:44.111Z,11.27
2023-03-01T12:20:49.914Z,11.97
2023-03-01T12:23:57.008Z,10.18
2023-03-01T12:26:54.641Z,10.63
2023-03-01T12:29:40.838Z,12.70
2023-03-01T12:32:25.940Z,11.10
2023-03-01T12:38:43.244Z,10.57
2023-03-01T12:41:44.886Z,9.70
2023-03-01T12:44:50.962Z,10.67
2023-03-01T12:47:57.430Z,12.43
2023-03-01T12:50:37.782Z,11.40
2023-03-01T12:53:07.658Z,11.40
2023-03-01T12:55:42.347Z,11.43
2023-03-01T12:58:34.138Z,11.10
2023-03-01T13:02:00.449Z,11.03
2023-03-01T13:05:07.694Z,9.90
2023-03-01T13:07:53.831Z,11.07
2023-03-01T13:10:43.112Z,11.13
2023-03-01T13:13:21.996Z,10.85
2023-03-01T13:15:53.565Z,10.05
2023-03-01T13:18:31.862Z,11.40
2023-03-01T13:21:01.504Z,10.82
2023-03-01T13:23:35.025Z,10.55
2023-03-01T13:26:06.136Z,9.85
2023-03-01T13:29:25.950Z,11.60
2023-03-01T13:31:57.885Z,11.27
2023-03-01T13:34:45.989Z,10.93
2023-03-01T13:37:30.269Z,10.15
2023-03-01T13:40:05.734Z,10.40
2023-03-01T13:42:38.630Z,12.13
2023-03-01T13:45:17.813Z,10.95
2023-03-01T13:47:47.390Z,10.60
2023-03-01T13:50:25.617Z,10.88
2023-03-01T13:53:01.211Z,11.25
2023-03-01T13:55:46.731Z,11.02
2023-03-01T13:58:28.411Z,10.30
2023-03-01T14:01:07.959Z,10.98
2023-03-01T14:03:43.893Z,15.13
2023-03-01T14:06:30.185Z,12.27
2023-03-01T14:09:26.898Z,10.93
2023-03-01T14:12:33.625Z,10.13
2023-03-01T14:15:20.914Z,9.60
2023-03-01T14:18:05.470Z,10.80
2023-03-01T14:20:40.368Z,9.52
2023-03-01T14:23:14.925Z,10.05
2023-03-01T14:26:02.697Z,9.48
2023-03-01T14:28:34.453Z,10.48
2023-03-01T14:31:02.772Z,10.63
2023-03-01T14:33:35.636Z,10.43
2023-03-01T14:36:12.258Z,10.10
2023-03-01T14:38:47.753Z,10.40
2023-03-01T14:41:22.074Z,10.02
2023-03-01T14:44:07.575Z,10.43
2023-03-01T14:46:40.572Z,9.95
2023-03-01T14:49:20.796Z,9.10
2023-03-01T14:52:03.412Z,8.93
2023-03-01T14:54:59.091Z,9.73
2023-03-01T14:57:27.931Z,9.32
2023-03-01T14:59:59.371Z,9.23
2023-03-01T15:02:28.428Z,10.05
2023-03-01T15:04:59.210Z,9.30
2023-03-01T15:07:33.566Z,9.30
2023-03-01T15:10:06.466Z,8.88
2023-03-01T15:12:39.426Z,8.57
2023-03-01T15:15:36.936Z,8.82
2023-03-01T15:18:22.675Z,8.65
2023-03-01T15:20:51.477Z,8.02
2023-03-01T15:23:26.131Z,9.35
2023-03-01T15:25:57.883Z,8.82
2023-03-01T15:28:29.498Z,8.85
2023-03-01T15:31:01.335Z,8.77
2023-03-01T15:33:37.907Z,9.50
2023-03-01T15:36:43.082Z,9.02
2023-03-01T15:39:44.538Z,9.80
2023-03-01T15:42:48.795Z,9.13
2023-03-01T15:45:28.207Z,9.23
2023-03-01T15:48:04.488Z,8.18
2023-03-01T15:50:35.080Z,7.85
2023-03-01T15:53:07.784Z,9.10
2023-03-01T15:55:35.300Z,9.27
2023-03-01T15:58:26.204Z,8.35
2023-03-01T16:01:01.098Z,8.73
2023-03-01T16:03:29.866Z,7.95
2023-03-01T16:05:57.934Z,8.35
2023-03-01T16:08:25.402Z,8.55
2023-03-01T16:10:54.699Z,8.02
2023-03-01T16:13:22.126Z,8.05
2023-03-01T16:15:49.618Z,8.27
2023-03-01T16:18:19.610Z,7.47
2023-03-01T16:20:47.648Z,7.10
2023-03-01T16:23:16.123Z,7.32
2023-03-01T16:25:43.536Z,6.80
2023-03-01T16:28:11.199Z,7.50
2023-03-01T16:30:40.638Z,15.20
2023-03-01T16:33:26.131Z,10.87
2023-03-01T16:35:57.148Z,8.40
2023-03-01T16:38:24.638Z,8.10
2023-03-01T16:40:53.068Z,7.67
2023-03-01T16:43:20.653Z,7.43
2023-03-01T16:45:48.244Z,8.63
2023-03-01T16:48:15.975Z,8.60
2023-03-01T16:50:43.326Z,7.47
2023-03-01T16:53:11.023Z,7.87
2023-03-01T16:55:39.039Z,7.77
2023-03-01T16:58:06.796Z,12.87
2023-03-01T17:00:34.300Z,15.80
2023-03-01T17:03:01.824Z,12.97
2023-03-01T17:05:29.282Z,13.47
2023-03-01T17:07:58.190Z,12.97
2023-03-01T17:10:25.636Z,11.83
2023-03-01T17:12:53.110Z,10.70
2023-03-01T17:15:20.536Z,13.20
2023-03-01T17:17:51.892Z,11.83
2023-03-01T17:20:20.106Z,13.20
2023-03-01T17:22:47.644Z,13.80
2023-03-01T17:25:15.947Z,13.77
2023-03-01T17:27:43.749Z,11.90
2023-03-01T17:30:13.106Z,13.37
2023-03-01T17:32:41.377Z,11.50
2023-03-01T17:35:11.619Z,13.57
2023-03-01T17:37:40.318Z,30.13
2023-03-01T17:40:08.680Z,34.07
2023-03-01T17:42:36.135Z,33.90
2023-03-01T17:45:03.954Z,29.23
2023-03-01T17:47:31.381Z,25.67
2023-03-01T17:49:58.760Z,28.23
2023-03-01T17:52:26.363Z,28.37
2023-03-01T17:54:53.739Z,27.10
2023-03-01T17:57:21.152Z,29.63
2023-03-01T17:59:48.538Z,30.20
2023-03-01T18:02:15.978Z,27.03
2023-03-01T18:04:43.429Z,28.07
2023-03-01T18:07:10.857Z,28.10
2023-03-01T18:09:38.305Z,23.20
2023-03-01T18:12:05.979Z,26.53
2023-03-01T18:14:34.222Z,29.93
2023-03-01T18:17:11.765Z,27.37
2023-03-01T18:19:41.410Z,30.70
2023-03-01T18:22:09.328Z,37.53
2023-03-01T18:24:40.057Z,33.13
2023-03-01T18:27:08.771Z,35.07
2023-03-01T18:29:39.490Z,32.63
2023-03-01T18:32:07.256Z,32.73
2023-03-01T18:34:35.211Z,29.33
2023-03-01T18:37:10.432Z,30.97
2023-03-01T18:39:38.613Z,31.90
2023-03-01T18:42:06.186Z,30.93
2023-03-01T18:44:34.230Z,30.80
2023-03-01T18:47:01.699Z,29.57
2023-03-01T18:49:29.211Z,31.13
2023-03-01T18:51:56.771Z,32.67
2023-03-01T18:54:24.536Z,31.67
2023-03-01T18:56:52.221Z,30.73
2023-03-01T18:59:19.622Z,30.63
2023-03-01T19:01:47.271Z,30.60
2023-03-01T19:04:15.080Z,30.33
2023-03-01T19:06:42.611Z,32.00
2023-03-01T19:09:11.494Z,30.33
2023-03-01T19:11:38.941Z,28.27
2023-03-01T19:14:06.514Z,29.00
2023-03-01T19:16:35.016Z,26.43
2023-03-01T19:19:04.903Z,26.80
2023-03-01T19:21:33.677Z,28.40
2023-03-01T19:24:02.745Z,25.77
2023-03-01T19:26:31.554Z,25.67
2023-03-01T19:28:59.889Z,23.33
2023-03-01T19:31:30.776Z,22.80
2023-03-01T19:34:10.604Z,21.40
2023-03-01T19:36:42.581Z,22.00
2023-03-01T19:39:13.525Z,21.13
2023-03-01T19:41:42.222Z,22.17
2023-03-01T19:44:10.289Z,22.13
2023-03-01T19:46:37.853Z,22.07
2023-03-01T19:49:05.627Z,22.23
2023-03-01T19:51:36.174Z,23.27
2023-03-01T19:54:06.182Z,23.40
2023-03-01T19:56:34.666Z,20.27
2023-03-01T19:59:04.572Z,22.90
2023-03-01T20:01:34.653Z,21.73
2023-03-01T20:04:03.573Z,20.87
2023-03-01T20:06:31.555Z,21.50
2023-03-01T20:09:02.315Z,23.20
2023-03-01T20:11:34.205Z,20.57
2023-03-01T20:14:02.368Z,22.73
2023-03-01T20:16:30.327Z,21.67
2023-03-01T20:19:00.646Z,20.83
2023-03-01T20:21:28.648Z,21.30
2023-03-01T20:23:56.249Z,20.10
2023-03-01T20:26:25.553Z,21.37
2023-03-01T20:28:55.393Z,20.10
2023-03-01T20:31:29.856Z,21.47
2023-03-01T20:33:58.794Z,21.00
2023-03-01T20:36:27.685Z,20.80
2023-03-01T20:38:55.592Z,20.27
2023-03-01T20:41:26.983Z,20.77
2023-03-01T20:43:56.494Z,20.58
2023-03-01T20:46:26.670Z,21.10
2023-03-01T20:48:54.558Z,19.60
2023-03-01T20:51:22.160Z,20.43
2023-03-01T20:53:49.603Z,19.00
2023-03-01T20:56:18.391Z,20.20
2023-03-01T20:59:06.030Z,21.27
2023-03-01T21:01:33.831Z,21.35
2023-03-01T21:04:01.927Z,20.87
2023-03-01T21:06:29.565Z,19.27
2023-03-01T21:08:57.392Z,20.83
2023-03-01T21:11:27.569Z,19.60
2023-03-01T21:13:55.756Z,20.30
2023-03-01T21:16:24.015Z,19.20
2023-03-01T21:18:51.529Z,23.47
2023-03-01T21:21:21.521Z,24.40
2023-03-01T21:23:49.021Z,23.37
2023-03-01T21:26:19.543Z,24.00
2023-03-01T21:28:48.290Z,42.50
2023-03-01T21:31:24.469Z,37.83
2023-03-01T21:33:54.454Z,30.17
2023-03-01T21:36:24.015Z,29.73
2023-03-01T21:38:52.792Z,27.73
2023-03-01T21:41:26.219Z,26.43
2023-03-01T21:43:57.554Z,27.23
2023-03-01T21:46:26.541Z,20.85
2023-03-01T21:48:55.286Z,23.50
2023-03-01T21:51:25.435Z,19.90
2023-03-01T21:53:54.256Z,22.27
2023-03-01T21:56:24.366Z,20.90
2023-03-01T21:58:52.765Z,21.37
2023-03-01T22:01:29.735Z,21.57
2023-03-01T22:03:58.608Z,23.23
2023-03-01T22:06:35.244Z,21.17
2023-03-01T22:09:09.625Z,22.07
2023-03-01T22:11:39.687Z,22.57
2023-03-01T22:14:08.011Z,24.07
2023-03-01T22:16:36.925Z,22.73
2023-03-01T22:19:06.404Z,22.83
2023-03-01T22:21:34.617Z,20.70
2023-03-01T22:24:02.112Z,23.10
2023-03-01T22:26:33.996Z,20.63
2023-03-01T22:31:30.140Z,18.00
2023-03-01T22:33:58.319Z,19.97
2023-03-01T22:36:26.818Z,18.90
2023-03-01T22:39:00.131Z,18.27
2023-03-01T22:41:44.344Z,17.97
2023-03-01T22:44:13.486Z,19.07
2023-03-01T22:46:41.802Z,18.63
2023-03-01T22:49:10.238Z,17.97
2023-03-01T22:51:40.691Z,19.33
2023-03-01T22:54:09.394Z,18.70
2023-03-01T22:56:37.671Z,18.40
2023-03-01T22:59:11.181Z,19.57
2023-03-01T23:01:41.003Z,18.13
2023-03-01T23:04:08.629Z,17.40
2023-03-01T23:06:50.628Z,18.60
2023-03-01T23:11:46.667Z,15.57
2023-03-01T23:14:14.292Z,15.90
2023-03-01T23:16:41.779Z,15.93
2023-03-01T23:19:09.240Z,16.33
2023-03-01T23:21:37.017Z,17.00
2023-03-01T23:24:04.947Z,16.30
2023-03-01T23:26:32.680Z,15.10
2023-03-01T23:29:00.411Z,15.67
2023-03-01T23:31:30.219Z,16.17
2023-03-01T23:33:57.929Z,16.10
2023-03-01T23:36:31.569Z,15.93
2023-03-01T23:39:02.326Z,15.73
2023-03-01T23:41:32.735Z,14.97
2023-03-01T23:44:02.312Z,16.20
2023-03-01T23:46:33.142Z,15.70
2023-03-01T23:49:01.744Z,14.70
2023-03-01T23:51:29.152Z,14.60
2023-03-01T23:54:00.138Z,14.50
2023-03-01T23:56:31.555Z,14.27
2023-03-01T23:59:09.345Z,15.50
